createdAt,value
2022-11-15T00:02:39.691Z,5.38
2022-11-15T00:05:26.115Z,5.38
2022-11-15T00:08:12.755Z,5.59
2022-11-15T00:11:02.963Z,5.80
2022-11-15T00:13:49.282Z,5.96
2022-11-15T00:16:35.850Z,6.07
2022-11-15T00:19:22.353Z,6.11
2022-11-15T00:22:08.754Z,5.96
2022-11-15T00:24:55.170Z,5.90
2022-11-15T00:27:43.235Z,6.07
2022-11-15T00:30:30.565Z,6.09
2022-11-15T00:33:16.924Z,6.05
2022-11-15T00:36:05.422Z,6.01
2022-11-15T00:38:51.576Z,6.03
2022-11-15T00:41:38.001Z,6.02
2022-11-15T00:44:25.904Z,5.93
2022-11-15T00:47:12.210Z,5.95
2022-11-15T00:49:58.770Z,5.86
2022-11-15T00:52:45.803Z,5.88
2022-11-15T00:55:32.152Z,5.92
2022-11-15T00:58:18.679Z,5.85
2022-11-15T01:01:11.305Z,5.93
2022-11-15T01:04:01.285Z,5.93
2022-11-15T01:06:48.481Z,5.95
2022-11-15T01:09:35.094Z,5.96
2022-11-15T01:12:21.441Z,5.95
2022-11-15T01:15:08.599Z,5.90
2022-11-15T01:17:56.827Z,5.90
2022-11-15T01:20:43.963Z,5.86
2022-11-15T01:23:30.482Z,5.81
2022-11-15T01:26:18.111Z,5.80
2022-11-15T01:29:05.223Z,5.77
2022-11-15T01:31:51.555Z,5.80
2022-11-15T01:34:39.471Z,5.84
2022-11-15T01:37:26.055Z,5.87
2022-11-15T01:40:12.872Z,5.87
2022-11-15T01:42:59.114Z,5.90
2022-11-15T01:45:48.159Z,5.92
2022-11-15T01:48:36.650Z,5.85
2022-11-15T01:51:28.606Z,5.84
2022-11-15T01:54:18.167Z,5.69
2022-11-15T01:57:09.221Z,5.71
2022-11-15T01:59:56.471Z,5.74
2022-11-15T02:02:42.736Z,5.72
2022-11-15T02:05:29.197Z,5.65
2022-11-15T02:08:21.009Z,5.69
2022-11-15T02:11:10.336Z,5.68
2022-11-15T02:13:57.603Z,5.62
2022-11-15T02:16:55.103Z,5.54
2022-11-15T02:20:23.299Z,5.56
2022-11-15T02:23:30.774Z,5.62
2022-11-15T02:26:36.978Z,5.59
2022-11-15T02:29:35.542Z,5.50
2022-11-15T02:32:33.035Z,5.39
2022-11-15T02:35:30.601Z,5.31
2022-11-15T02:38:24.542Z,5.09
2022-11-15T02:41:15.199Z,5.01
2022-11-15T02:44:05.881Z,4.97
2022-11-15T02:47:12.859Z,4.99
2022-11-15T02:50:04.559Z,5.03
2022-11-15T02:52:51.551Z,5.27
2022-11-15T02:55:40.154Z,5.46
2022-11-15T02:58:49.842Z,5.65
2022-11-15T03:01:48.402Z,5.80
2022-11-15T03:04:45.891Z,5.78
2022-11-15T03:07:38.956Z,5.66
2022-11-15T03:10:34.268Z,5.73
2022-11-15T03:13:27.323Z,5.69
2022-11-15T03:16:18.468Z,5.60
2022-11-15T03:19:08.843Z,5.44
2022-11-15T03:21:59.726Z,5.52
2022-11-15T03:24:49.808Z,5.58
2022-11-15T03:27:40.359Z,5.73
2022-11-15T03:30:26.800Z,5.76
2022-11-15T03:33:13.706Z,5.84
2022-11-15T03:36:00.681Z,5.99
2022-11-15T03:38:47.703Z,6.05
2022-11-15T03:41:42.315Z,6.09
2022-11-15T03:44:37.660Z,6.09
2022-11-15T03:47:30.934Z,6.08
2022-11-15T03:50:20.514Z,6.08
2022-11-15T03:53:07.111Z,6.13
2022-11-15T03:55:53.441Z,6.10
2022-11-15T03:58:41.172Z,6.09
2022-11-15T04:01:27.580Z,6.18
2022-11-15T04:04:14.012Z,6.18
2022-11-15T04:07:00.532Z,6.20
2022-11-15T04:10:06.263Z,6.25
2022-11-15T04:12:52.479Z,6.27
2022-11-15T04:15:40.235Z,6.28
2022-11-15T04:18:26.740Z,6.22
2022-11-15T04:21:30.854Z,6.15
2022-11-15T04:24:17.418Z,6.08
2022-11-15T04:27:04.122Z,6.11
2022-11-15T04:29:50.592Z,6.13
2022-11-15T04:32:38.464Z,6.11
2022-11-15T04:35:25.027Z,6.15
2022-11-15T04:38:12.956Z,6.13
2022-11-15T04:40:59.576Z,6.03
2022-11-15T04:43:45.999Z,5.99
2022-11-15T04:46:32.630Z,5.86
2022-11-15T04:49:20.556Z,5.82
2022-11-15T04:52:06.884Z,5.72
2022-11-15T04:54:53.414Z,5.65
2022-11-15T04:57:40.234Z,5.70
2022-11-15T05:00:26.447Z,5.66
2022-11-15T05:03:30.980Z,5.57
2022-11-15T05:06:18.960Z,5.53
2022-11-15T05:09:05.558Z,5.59
2022-11-15T05:11:52.083Z,5.60
2022-11-15T05:14:38.527Z,5.53
2022-11-15T05:17:25.143Z,5.57
2022-11-15T05:20:12.361Z,5.55
2022-11-15T05:23:00.062Z,5.50
2022-11-15T05:25:46.588Z,5.49
2022-11-15T05:28:33.580Z,5.47
2022-11-15T05:31:19.970Z,5.51
2022-11-15T05:34:07.128Z,5.54
2022-11-15T05:36:53.755Z,5.60
2022-11-15T05:39:41.629Z,5.73
2022-11-15T05:42:29.787Z,5.66
2022-11-15T05:45:16.644Z,5.74
2022-11-15T05:48:07.630Z,5.77
2022-11-15T05:50:54.668Z,5.73
2022-11-15T05:53:41.329Z,5.63
2022-11-15T05:56:29.043Z,5.83
2022-11-15T05:59:15.442Z,5.96
2022-11-15T06:02:01.982Z,6.12
2022-11-15T06:04:48.818Z,6.25
2022-11-15T06:07:35.470Z,6.42
2022-11-15T06:10:22.027Z,6.54
2022-11-15T06:13:09.728Z,6.50
2022-11-15T06:15:57.480Z,6.57
2022-11-15T06:18:44.117Z,6.65
2022-11-15T06:21:30.436Z,6.74
2022-11-15T06:24:16.777Z,6.83
2022-11-15T06:27:03.392Z,6.91
2022-11-15T06:29:51.220Z,6.99
2022-11-15T06:32:37.705Z,7.08
2022-11-15T06:35:24.254Z,7.13
2022-11-15T06:38:12.498Z,7.18
2022-11-15T06:41:03.790Z,7.20
2022-11-15T06:43:49.986Z,7.21
2022-11-15T06:46:37.811Z,7.21
2022-11-15T06:49:24.603Z,7.21
2022-11-15T06:52:11.059Z,7.19
2022-11-15T06:54:57.705Z,7.22
2022-11-15T06:57:49.071Z,7.23
2022-11-15T07:00:35.331Z,7.24
2022-11-15T07:03:23.161Z,7.26
2022-11-15T07:06:10.685Z,7.21
2022-11-15T07:08:57.306Z,7.30
2022-11-15T07:11:43.787Z,7.33
2022-11-15T07:14:30.262Z,7.36
2022-11-15T07:17:16.741Z,7.40
2022-11-15T07:20:05.511Z,7.27
2022-11-15T07:22:51.923Z,7.28
2022-11-15T07:25:38.346Z,7.34
2022-11-15T07:28:24.824Z,7.32
2022-11-15T07:31:11.317Z,7.37
2022-11-15T07:33:58.491Z,7.41
2022-11-15T07:36:46.133Z,7.36
2022-11-15T07:39:32.542Z,7.27
2022-11-15T07:42:36.635Z,7.22
2022-11-15T07:45:23.913Z,7.14
2022-11-15T07:48:10.036Z,7.10
2022-11-15T07:50:56.505Z,7.11
2022-11-15T07:53:45.215Z,7.13
2022-11-15T07:56:31.391Z,7.17
2022-11-15T07:59:17.889Z,7.26
2022-11-15T08:02:05.068Z,7.33
2022-11-15T08:04:51.295Z,7.41
2022-11-15T08:07:39.034Z,7.49
2022-11-15T08:10:26.741Z,7.62
2022-11-15T08:13:14.282Z,7.78
2022-11-15T08:16:01.456Z,7.95
2022-11-15T08:18:47.693Z,8.06
2022-11-15T08:21:34.211Z,8.05
2022-11-15T08:24:21.377Z,8.15
2022-11-15T08:27:15.819Z,8.18
2022-11-15T08:30:02.822Z,8.25
2022-11-15T08:32:49.884Z,8.29
2022-11-15T08:35:36.200Z,8.36
2022-11-15T08:38:22.615Z,8.40
2022-11-15T08:41:09.246Z,8.43
2022-11-15T08:43:56.987Z,8.51
2022-11-15T08:46:43.147Z,8.62
2022-11-15T08:49:29.723Z,8.76
2022-11-15T08:52:16.757Z,8.87
2022-11-15T08:55:03.294Z,8.94
2022-11-15T08:57:49.775Z,8.95
2022-11-15T09:00:37.707Z,8.93
2022-11-15T09:03:24.157Z,8.96
2022-11-15T09:06:11.087Z,9.07
2022-11-15T09:08:58.149Z,9.15
2022-11-15T09:11:44.510Z,9.18
2022-11-15T09:14:31.366Z,9.15
2022-11-15T09:17:24.238Z,9.08
2022-11-15T09:20:11.724Z,9.02
2022-11-15T09:23:01.842Z,8.97
2022-11-15T09:25:48.697Z,8.97
2022-11-15T09:28:36.290Z,9.01
2022-11-15T09:31:23.171Z,9.11
2022-11-15T09:34:10.895Z,9.17
2022-11-15T09:36:57.092Z,9.25
2022-11-15T09:39:43.572Z,9.33
2022-11-15T09:42:47.679Z,9.41
2022-11-15T09:45:39.568Z,9.40
2022-11-15T09:48:51.856Z,9.37
2022-11-15T09:51:48.541Z,9.32
2022-11-15T09:57:16.490Z,9.33
2022-11-15T10:00:01.373Z,9.38
2022-11-15T10:02:53.821Z,9.46
2022-11-15T10:05:25.183Z,9.52
2022-11-15T10:07:59.720Z,9.58
2022-11-15T10:10:33.401Z,9.67
2022-11-15T10:13:01.347Z,9.74
2022-11-15T10:15:29.175Z,9.79
2022-11-15T10:18:17.462Z,9.85
2022-11-15T10:20:50.932Z,9.91
2022-11-15T10:23:23.085Z,9.97
2022-11-15T10:25:55.036Z,10.00
2022-11-15T10:28:28.093Z,10.04
2022-11-15T10:30:57.638Z,10.04
2022-11-15T10:33:43.383Z,10.11
2022-11-15T10:36:23.127Z,10.02
2022-11-15T10:38:58.183Z,10.15
2022-11-15T10:41:39.392Z,10.14
2022-11-15T10:44:21.311Z,10.13
2022-11-15T10:46:51.510Z,10.11
2022-11-15T10:49:21.119Z,10.14
2022-11-15T10:51:51.361Z,10.00
2022-11-15T10:54:26.091Z,10.20
2022-11-15T10:56:56.591Z,10.27
2022-11-15T10:59:29.079Z,10.33
2022-11-15T11:01:57.059Z,10.33
2022-11-15T11:04:24.936Z,10.37
2022-11-15T11:06:54.362Z,10.36
2022-11-15T11:09:33.139Z,10.34
2022-11-15T11:12:02.354Z,10.32
2022-11-15T11:14:33.080Z,10.30
2022-11-15T11:17:07.730Z,10.22
2022-11-15T11:19:46.943Z,10.24
2022-11-15T11:22:21.814Z,10.25
2022-11-15T11:25:03.298Z,10.23
2022-11-15T11:27:44.060Z,10.19
2022-11-15T11:30:17.373Z,10.16
2022-11-15T11:32:57.871Z,10.15
2022-11-15T11:35:31.852Z,10.12
2022-11-15T11:38:16.161Z,10.15
2022-11-15T11:40:55.929Z,10.23
2022-11-15T11:43:35.509Z,10.29
2022-11-15T11:46:18.680Z,10.31
2022-11-15T11:48:51.207Z,10.26
2022-11-15T11:51:23.042Z,10.22
2022-11-15T11:53:56.644Z,10.22
2022-11-15T11:56:29.570Z,10.19
2022-11-15T11:59:03.284Z,10.16
2022-11-15T12:01:36.297Z,10.14
2022-11-15T12:04:15.776Z,10.13
2022-11-15T12:06:49.379Z,10.16
2022-11-15T12:09:21.825Z,10.14
2022-11-15T12:11:57.813Z,10.16
2022-11-15T12:14:34.105Z,10.15
2022-11-15T12:17:02.514Z,10.17
2022-11-15T12:19:31.204Z,10.17
2022-11-15T12:22:04.534Z,10.17
2022-11-15T12:24:39.552Z,10.18
2022-11-15T12:27:23.279Z,10.17
2022-11-15T12:29:58.732Z,10.15
2022-11-15T12:32:30.396Z,10.11
2022-11-15T12:35:00.222Z,10.07
2022-11-15T12:37:48.139Z,10.08
2022-11-15T12:40:25.315Z,10.12
2022-11-15T12:43:17.084Z,10.16
2022-11-15T12:45:46.815Z,10.19
2022-11-15T12:48:50.183Z,10.19
2022-11-15T12:51:18.931Z,10.18
2022-11-15T12:53:46.720Z,10.12
2022-11-15T12:56:23.746Z,10.22
2022-11-15T12:58:58.576Z,10.19
2022-11-15T13:02:01.201Z,10.21
2022-11-15T13:04:32.931Z,10.20
2022-11-15T13:07:04.011Z,10.18
2022-11-15T13:09:55.299Z,10.17
2022-11-15T13:12:58.275Z,10.18
2022-11-15T13:15:43.038Z,10.08
2022-11-15T13:18:40.475Z,10.17
2022-11-15T13:21:39.988Z,10.18
2022-11-15T13:24:14.000Z,10.19
2022-11-15T13:26:42.241Z,10.20
2022-11-15T13:29:21.128Z,10.22
2022-11-15T13:31:50.695Z,10.18
2022-11-15T13:37:31.220Z,10.29
2022-11-15T13:40:17.900Z,10.33
2022-11-15T13:42:46.065Z,10.35
2022-11-15T13:45:17.671Z,10.33
2022-11-15T13:47:52.684Z,10.34
2022-11-15T13:50:24.155Z,10.31
2022-11-15T13:52:52.502Z,10.29
2022-11-15T13:55:22.979Z,10.26
2022-11-15T13:57:54.114Z,10.23
2022-11-15T14:00:38.558Z,10.23
2022-11-15T14:03:23.446Z,10.20
2022-11-15T14:06:07.400Z,10.20
2022-11-15T14:08:36.160Z,10.19
2022-11-15T14:11:15.827Z,10.16
2022-11-15T14:13:44.046Z,10.15
2022-11-15T14:16:16.587Z,10.00
2022-11-15T14:18:49.025Z,9.99
2022-11-15T14:21:17.606Z,10.06
2022-11-15T14:23:45.750Z,10.06
2022-11-15T14:26:29.922Z,10.02
2022-11-15T14:28:58.083Z,10.02
2022-11-15T14:31:25.883Z,9.92
2022-11-15T14:33:55.016Z,9.97
2022-11-15T14:36:23.313Z,9.97
2022-11-15T14:38:51.262Z,9.94
2022-11-15T14:41:21.873Z,9.93
2022-11-15T14:43:49.781Z,9.91
2022-11-15T14:46:17.714Z,9.89
2022-11-15T14:48:45.555Z,9.89
2022-11-15T14:51:17.352Z,9.86
2022-11-15T14:53:46.713Z,9.83
2022-11-15T14:56:15.550Z,9.83
2022-11-15T14:58:43.764Z,9.82
2022-11-15T15:01:15.198Z,9.80
2022-11-15T15:03:45.027Z,9.78
2022-11-15T15:06:17.905Z,9.76
2022-11-15T15:08:49.408Z,9.72
2022-11-15T15:11:22.681Z,9.71
2022-11-15T15:13:50.732Z,9.69
2022-11-15T15:16:18.507Z,9.66
2022-11-15T15:18:46.333Z,9.65
2022-11-15T15:21:22.403Z,9.64
2022-11-15T15:23:51.839Z,9.62
2022-11-15T15:26:19.740Z,9.60
2022-11-15T15:28:49.492Z,9.50
2022-11-15T15:31:17.383Z,9.55
2022-11-15T15:33:45.414Z,9.59
2022-11-15T15:36:14.025Z,9.58
2022-11-15T15:38:42.299Z,9.56
2022-11-15T15:41:13.193Z,9.59
2022-11-15T15:43:41.644Z,9.55
2022-11-15T15:46:11.791Z,9.63
2022-11-15T15:48:40.483Z,9.62
2022-11-15T15:51:15.413Z,9.64
2022-11-15T15:53:46.708Z,9.64
2022-11-15T15:56:15.911Z,9.65
2022-11-15T15:58:43.780Z,9.65
2022-11-15T16:01:11.636Z,9.66
2022-11-15T16:03:39.485Z,9.66
2022-11-15T16:06:34.936Z,9.67
2022-11-15T16:09:16.799Z,9.68
2022-11-15T16:11:47.947Z,9.67
2022-11-15T16:14:15.777Z,9.69
2022-11-15T16:16:43.719Z,9.69
2022-11-15T16:19:13.531Z,9.69
2022-11-15T16:21:41.333Z,9.69
2022-11-15T16:24:09.130Z,9.69
2022-11-15T16:26:38.623Z,9.69
2022-11-15T16:29:10.111Z,9.72
2022-11-15T16:31:38.019Z,9.66
2022-11-15T16:34:05.840Z,9.74
2022-11-15T16:36:35.827Z,9.72
2022-11-15T16:39:05.180Z,9.73
2022-11-15T16:41:33.126Z,9.72
2022-11-15T16:44:01.017Z,9.64
2022-11-15T16:46:30.238Z,9.70
2022-11-15T16:48:58.463Z,9.68
2022-11-15T16:51:26.513Z,9.64
2022-11-15T16:53:54.352Z,9.67
2022-11-15T16:56:25.744Z,9.69
2022-11-15T16:58:54.790Z,9.71
2022-11-15T17:01:24.986Z,9.73
2022-11-15T17:03:54.791Z,9.74
2022-11-15T17:06:26.295Z,9.72
2022-11-15T17:08:54.113Z,9.73
2022-11-15T17:11:23.851Z,9.73
2022-11-15T17:13:51.805Z,9.65
2022-11-15T17:16:19.735Z,9.70
2022-11-15T17:18:52.366Z,9.71
2022-11-15T17:21:23.297Z,9.69
2022-11-15T17:23:51.111Z,9.68
2022-11-15T17:26:39.242Z,9.69
2022-11-15T17:29:08.687Z,9.58
2022-11-15T17:31:37.531Z,9.71
2022-11-15T17:34:07.103Z,9.65
2022-11-15T17:36:36.627Z,9.64
2022-11-15T17:39:05.189Z,9.69
2022-11-15T17:41:33.052Z,9.62
2022-11-15T17:44:03.297Z,9.65
2022-11-15T17:46:32.139Z,9.69
2022-11-15T17:49:00.524Z,9.60
2022-11-15T17:51:28.396Z,9.71
2022-11-15T17:53:57.576Z,9.69
2022-11-15T17:56:27.378Z,9.69
2022-11-15T17:58:56.821Z,9.69
2022-11-15T18:01:26.802Z,9.68
2022-11-15T18:03:55.431Z,9.66
2022-11-15T18:06:25.920Z,9.67
2022-11-15T18:08:55.981Z,9.68
2022-11-15T18:11:27.325Z,9.67
2022-11-15T18:13:58.256Z,9.70
2022-11-15T18:16:27.944Z,9.72
2022-11-15T18:18:56.099Z,9.73
2022-11-15T18:21:25.801Z,9.74
2022-11-15T18:23:56.714Z,9.71
2022-11-15T18:26:27.879Z,9.70
2022-11-15T18:28:57.493Z,9.67
2022-11-15T18:31:27.122Z,9.65
2022-11-15T18:33:55.632Z,9.53
2022-11-15T18:36:25.046Z,9.66
2022-11-15T18:38:55.357Z,9.60
2022-11-15T18:41:25.390Z,9.68
2022-11-15T18:43:55.176Z,9.68
2022-11-15T18:46:25.228Z,9.67
2022-11-15T18:48:54.481Z,9.67
2022-11-15T18:51:23.800Z,9.70
2022-11-15T18:53:54.422Z,9.71
2022-11-15T18:56:23.867Z,9.70
2022-11-15T18:58:55.086Z,9.70
2022-11-15T19:01:24.922Z,9.69
2022-11-15T19:03:54.749Z,9.70
2022-11-15T19:06:24.058Z,9.69
2022-11-15T19:08:54.562Z,9.70
2022-11-15T19:11:24.158Z,9.72
2022-11-15T19:13:56.364Z,9.71
2022-11-15T19:16:25.275Z,9.71
2022-11-15T19:18:55.587Z,9.70
2022-11-15T19:21:24.567Z,9.70
2022-11-15T19:23:54.136Z,9.72
2022-11-15T19:26:23.694Z,9.74
2022-11-15T19:28:53.161Z,9.75
2022-11-15T19:31:23.559Z,9.77
2022-11-15T19:33:52.634Z,9.66
2022-11-15T19:36:21.849Z,9.76
2022-11-15T19:38:49.914Z,9.76
2022-11-15T19:41:19.316Z,9.77
2022-11-15T19:43:48.583Z,9.78
2022-11-15T19:46:16.707Z,9.71
2022-11-15T19:48:45.851Z,9.78
2022-11-15T19:51:15.504Z,9.76
2022-11-15T19:53:43.724Z,9.76
2022-11-15T19:56:12.989Z,9.76
2022-11-15T19:58:41.388Z,9.77
2022-11-15T20:01:13.998Z,9.80
2022-11-15T20:03:41.840Z,9.81
2022-11-15T20:06:12.880Z,9.82
2022-11-15T20:08:40.713Z,9.83
2022-11-15T20:11:08.983Z,9.83
2022-11-15T20:13:36.932Z,9.81
2022-11-15T20:16:04.968Z,9.76
2022-11-15T20:18:33.035Z,9.78
2022-11-15T20:21:01.669Z,9.75
2022-11-15T20:23:31.646Z,9.76
2022-11-15T20:25:59.541Z,9.74
2022-11-15T20:28:29.046Z,9.63
2022-11-15T20:30:58.829Z,9.53
2022-11-15T20:33:27.521Z,9.63
2022-11-15T20:35:55.357Z,9.63
2022-11-15T20:38:23.647Z,9.60
2022-11-15T20:40:57.554Z,9.55
2022-11-15T20:43:28.259Z,9.59
2022-11-15T20:45:56.046Z,9.63
2022-11-15T20:48:23.942Z,9.59
2022-11-15T20:50:51.766Z,9.61
2022-11-15T20:53:21.269Z,9.61
2022-11-15T20:55:52.402Z,9.58
2022-11-15T20:58:20.199Z,9.60
2022-11-15T21:00:48.557Z,9.58
2022-11-15T21:03:16.485Z,9.55
2022-11-15T21:05:45.544Z,9.53
2022-11-15T21:08:14.170Z,9.55
2022-11-15T21:10:59.779Z,9.51
2022-11-15T21:13:29.352Z,9.51
2022-11-15T21:15:57.858Z,9.45
2022-11-15T21:18:25.797Z,9.38
2022-11-15T21:20:53.834Z,9.32
2022-11-15T21:23:21.937Z,9.37
2022-11-15T21:25:50.691Z,9.36
2022-11-15T21:28:18.647Z,9.35
2022-11-15T21:30:55.807Z,9.35
2022-11-15T21:33:27.202Z,9.33
2022-11-15T21:35:55.474Z,9.35
2022-11-15T21:38:24.504Z,9.37
2022-11-15T21:40:53.083Z,9.38
2022-11-15T21:43:21.766Z,9.37
2022-11-15T21:45:59.115Z,9.37
2022-11-15T21:48:27.116Z,9.36
2022-11-15T21:50:58.891Z,9.40
2022-11-15T21:53:27.703Z,9.41
2022-11-15T21:55:55.786Z,9.44
2022-11-15T21:58:24.510Z,9.44
2022-11-15T22:01:10.027Z,9.44
2022-11-15T22:03:39.231Z,9.42
2022-11-15T22:06:07.395Z,9.41
2022-11-15T22:08:35.808Z,9.40
2022-11-15T22:11:04.463Z,9.34
2022-11-15T22:13:32.467Z,9.25
2022-11-15T22:16:00.441Z,9.26
2022-11-15T22:18:28.855Z,9.26
2022-11-15T22:20:59.532Z,9.26
2022-11-15T22:23:29.526Z,9.22
2022-11-15T22:25:57.943Z,9.24
2022-11-15T22:28:26.132Z,9.23
2022-11-15T22:30:55.549Z,9.23
2022-11-15T22:33:25.265Z,9.23
2022-11-15T22:35:53.987Z,9.13
2022-11-15T22:38:24.179Z,9.14
2022-11-15T22:40:52.114Z,9.12
2022-11-15T22:43:21.823Z,9.08
2022-11-15T22:45:54.254Z,9.09
2022-11-15T22:48:23.674Z,9.13
2022-11-15T22:50:51.816Z,9.18
2022-11-15T22:53:20.423Z,9.24
2022-11-15T22:55:52.712Z,9.26
2022-11-15T22:58:21.183Z,9.26
2022-11-15T23:00:50.710Z,9.27
2022-11-15T23:03:19.784Z,9.31
2022-11-15T23:05:47.914Z,9.32
2022-11-15T23:08:15.945Z,9.30
2022-11-15T23:11:01.839Z,9.30
2022-11-15T23:13:33.348Z,9.25
2022-11-15T23:16:21.000Z,9.29
2022-11-15T23:18:50.008Z,9.25
2022-11-15T23:21:41.399Z,9.23
2022-11-15T23:24:10.437Z,9.20
2022-11-15T23:26:39.231Z,9.22
2022-11-15T23:29:10.882Z,9.24
2022-11-15T23:32:01.457Z,9.26
2022-11-15T23:34:30.545Z,9.26
2022-11-15T23:36:59.079Z,9.27
2022-11-15T23:39:27.011Z,9.28
2022-11-15T23:41:55.023Z,9.30
2022-11-15T23:44:24.832Z,9.25
2022-11-15T23:46:53.004Z,9.36
2022-11-15T23:49:21.338Z,9.34
2022-11-15T23:51:49.464Z,9.35
2022-11-15T23:54:17.357Z,9.37
2022-11-15T23:56:45.315Z,9.34
2022-11-15T23:59:13.257Z,9.38
